createdAt,value
2023-03-12T11:23:24.719Z,2.90
2023-03-12T11:31:36.482Z,2.95
2023-03-12T11:39:33.964Z,3.95
2023-03-12T11:42:44.759Z,3.00
2023-03-12T11:45:31.656Z,3.00
2023-03-12T11:48:39.766Z,3.17
2023-03-12T11:51:30.401Z,3.28
2023-03-12T11:54:45.866Z,3.10
2023-03-12T11:57:44.882Z,2.92
2023-03-12T12:00:21.324Z,3.00
2023-03-12T12:03:25.962Z,2.80
2023-03-12T12:06:19.068Z,3.10
2023-03-12T12:09:13.353Z,2.88
2023-03-12T12:12:05.872Z,2.92
2023-03-12T12:14:50.701Z,3.10
2023-03-12T12:17:42.356Z,3.28
2023-03-12T12:20:37.866Z,2.72
2023-03-12T12:23:36.942Z,3.00
2023-03-12T12:26:13.326Z,2.85
2023-03-12T12:29:01.448Z,2.78
2023-03-12T12:31:48.148Z,2.78
2023-03-12T12:35:08.074Z,2.95
2023-03-12T12:37:40.388Z,2.55
2023-03-12T12:40:12.701Z,2.93
2023-03-12T12:42:57.568Z,3.33
2023-03-12T12:45:31.102Z,2.80
2023-03-12T12:48:08.498Z,3.35
2023-03-12T12:50:42.237Z,2.53
2023-03-12T12:53:43.631Z,3.30
2023-03-12T12:56:33.879Z,2.92
2023-03-12T12:59:25.306Z,2.78
2023-03-12T13:02:00.302Z,2.40
2023-03-12T13:04:36.463Z,3.03
2023-03-12T13:07:11.911Z,2.97
2023-03-12T13:09:53.683Z,2.85
2023-03-12T13:12:33.464Z,2.83
2023-03-12T13:15:32.213Z,3.00
2023-03-12T13:18:18.655Z,2.45
2023-03-12T13:20:54.324Z,3.00
2023-03-12T13:24:17.126Z,2.53
2023-03-12T13:27:13.582Z,2.90
2023-03-12T13:29:46.856Z,2.55
2023-03-12T13:32:37.553Z,3.00
2023-03-12T13:35:17.496Z,2.72
2023-03-12T13:37:53.496Z,2.90
2023-03-12T13:40:37.266Z,2.45
2023-03-12T13:43:09.606Z,2.50
2023-03-12T13:45:51.119Z,2.43
2023-03-12T13:48:25.972Z,2.35
2023-03-12T13:53:40.289Z,3.00
2023-03-12T13:56:15.078Z,2.75
2023-03-12T13:58:47.380Z,2.58
2023-03-12T14:01:22.274Z,2.70
2023-03-12T14:04:00.428Z,2.40
2023-03-12T14:06:47.819Z,2.80
2023-03-12T14:09:26.463Z,2.47
2023-03-12T14:11:58.828Z,3.17
2023-03-12T14:15:02.471Z,2.70
2023-03-12T14:17:38.085Z,2.20
2023-03-12T14:20:17.028Z,2.65
2023-03-12T14:23:00.594Z,2.40
2023-03-12T14:25:38.809Z,3.03
2023-03-12T14:28:23.246Z,2.65
2023-03-12T14:31:14.835Z,2.58
2023-03-12T14:34:03.011Z,2.40
2023-03-12T14:36:40.815Z,2.20
2023-03-12T14:39:27.475Z,2.45
2023-03-12T14:42:05.988Z,2.38
2023-03-12T14:44:40.717Z,2.50
2023-03-12T14:47:18.370Z,2.50
2023-03-12T14:49:50.741Z,2.50
2023-03-12T14:52:29.556Z,2.50
2023-03-12T14:55:05.620Z,2.53
2023-03-12T15:00:29.770Z,2.10
2023-03-12T15:03:05.597Z,2.70
2023-03-12T15:05:38.026Z,2.45
2023-03-12T15:08:13.332Z,2.35
2023-03-12T15:10:57.766Z,2.45
2023-03-12T15:13:30.173Z,2.10
2023-03-12T15:16:02.955Z,2.17
2023-03-12T15:18:36.815Z,2.05
2023-03-12T15:21:09.164Z,2.15
2023-03-12T15:23:45.636Z,2.30
2023-03-12T15:26:21.035Z,2.50
2023-03-12T15:29:17.703Z,2.17
2023-03-12T15:31:50.347Z,2.38
2023-03-12T15:34:37.751Z,2.30
2023-03-12T15:37:40.164Z,2.42
2023-03-12T15:40:29.776Z,2.30
2023-03-12T15:43:03.392Z,2.45
2023-03-12T15:45:38.605Z,2.20
2023-03-12T15:48:23.044Z,2.20
2023-03-12T15:50:55.403Z,2.20
2023-03-12T15:53:30.933Z,1.87
2023-03-12T15:56:07.780Z,2.35
2023-03-12T15:58:41.978Z,2.17
2023-03-12T16:01:18.071Z,1.80
2023-03-12T16:03:50.452Z,2.10
2023-03-12T16:06:26.370Z,2.40
2023-03-12T16:09:04.159Z,1.73
2023-03-12T16:11:38.307Z,2.17
2023-03-12T16:14:22.360Z,2.17
2023-03-12T16:16:54.847Z,2.20
2023-03-12T16:19:30.009Z,2.13
2023-03-12T16:22:02.448Z,2.10
2023-03-12T16:24:34.877Z,2.23
2023-03-12T16:27:18.091Z,1.95
2023-03-12T16:29:53.064Z,1.90
2023-03-12T16:32:25.367Z,2.23
2023-03-12T16:34:57.905Z,2.10
2023-03-12T16:37:31.126Z,2.25
2023-03-12T16:42:43.097Z,1.93
2023-03-12T16:45:19.243Z,1.92
2023-03-12T16:47:59.007Z,1.52
2023-03-12T16:50:32.242Z,2.03
2023-03-12T16:53:05.138Z,2.10
2023-03-12T16:56:01.884Z,2.08
2023-03-12T16:58:36.515Z,2.38
2023-03-12T17:01:13.338Z,2.33
2023-03-12T17:03:49.839Z,2.05
2023-03-12T17:06:25.305Z,2.20
2023-03-12T17:08:57.882Z,1.90
2023-03-12T17:11:34.983Z,2.20
2023-03-12T17:14:17.463Z,2.05
2023-03-12T17:16:50.912Z,1.90
2023-03-12T17:19:23.596Z,1.75
2023-03-12T17:21:56.395Z,1.92
2023-03-12T17:24:29.061Z,1.90
2023-03-12T17:27:01.547Z,1.77
2023-03-12T17:29:33.912Z,1.77
2023-03-12T17:32:06.592Z,2.13
2023-03-12T17:34:39.100Z,2.20
2023-03-12T17:37:11.783Z,1.92
2023-03-12T17:39:45.439Z,2.00
2023-03-12T17:42:19.163Z,1.88
2023-03-12T17:44:51.829Z,1.80
2023-03-12T17:47:24.318Z,1.92
2023-03-12T17:49:56.975Z,1.87
2023-03-12T17:52:32.123Z,1.63
2023-03-12T17:55:06.121Z,1.30
2023-03-12T17:57:39.285Z,1.77
2023-03-12T18:00:13.160Z,2.00
2023-03-12T18:02:45.527Z,1.98
2023-03-12T18:05:18.256Z,1.90
2023-03-12T18:07:51.305Z,1.67
2023-03-12T18:10:23.730Z,1.45
2023-03-12T18:12:56.183Z,2.05
2023-03-12T18:15:28.756Z,1.33
2023-03-12T18:18:01.287Z,1.88
2023-03-12T18:20:39.290Z,1.63
2023-03-12T18:23:12.422Z,1.58
